Time;durP1;ratioP1;P1;durP2;ratioP2;P2;SDS_P1;SDS_P2;PMS_P1;PMS_P2;Temp;Humidity;BMP_temperature;BMP_pressure;BME280_temperature;BME280_humidity;BME280_pressure;Samples;Min_cycle;Max_cycle;Signal;HPM_P1;HPM_P2
2023/07/15 00:02:05;;;;;;;0.40;0.40;;;;;;;25.75;35.58;100013.53;5196704;28;20163;-85
2023/07/15 00:04:55;;;;;;;0.28;0.28;;;;;;;25.83;35.72;100010.06;5197769;28;20095;-85
2023/07/15 00:07:48;;;;;;;0.13;0.13;;;;;;;25.83;35.59;100003.84;5195104;28;20029;-85
2023/07/15 00:10:42;;;;;;;0.30;0.30;;;;;;;25.89;35.61;100008.59;5209380;28;20037;-86
2023/07/15 00:13:32;;;;;;;0.13;0.13;;;;;;;25.71;35.90;100006.81;5199160;28;20025;-84
2023/07/15 00:16:24;;;;;;;0.43;0.43;;;;;;;25.69;35.83;99998.06;5202057;28;20071;-84
2023/07/15 00:19:18;;;;;;;4.47;0.73;;;;;;;25.70;35.75;99998.91;5200151;28;20352;-85
2023/07/15 00:22:10;;;;;;;0.47;0.40;;;;;;;25.69;35.98;99999.91;5207778;28;20052;-85
2023/07/15 00:25:05;;;;;;;0.35;0.35;;;;;;;25.69;36.06;100003.44;5226882;28;20033;-86
2023/07/15 00:27:55;;;;;;;0.47;0.47;;;;;;;25.60;36.13;100007.06;5227527;28;20029;-86
2023/07/15 00:30:50;;;;;;;0.47;0.20;;;;;;;25.70;35.98;100001.59;5212663;28;20347;-85
2023/07/15 00:33:40;;;;;;;0.43;0.43;;;;;;;25.66;36.02;100006.41;5226345;28;20043;-86
2023/07/15 00:36:32;;;;;;;0.20;0.20;;;;;;;25.55;36.17;99994.09;5195774;28;20108;-85
2023/07/15 00:39:23;;;;;;;1.30;0.73;;;;;;;25.60;36.34;100007.91;5225149;28;20044;-85
2023/07/15 00:42:19;;;;;;;0.30;0.30;;;;;;;25.52;36.38;99997.13;5199181;28;20031;-85
2023/07/15 00:45:10;;;;;;;0.93;0.88;;;;;;;25.48;36.61;99987.66;5195830;28;20041;-85
2023/07/15 00:48:11;;;;;;;0.30;0.30;;;;;;;25.49;36.16;99994.72;5194083;28;20033;-85
2023/07/15 00:51:02;;;;;;;0.45;0.45;;;;;;;25.51;36.15;99986.50;5204529;28;20060;-85
2023/07/15 00:53:53;;;;;;;0.28;0.28;;;;;;;25.45;36.44;99982.63;5194072;28;20234;-85
2023/07/15 00:56:45;;;;;;;7.03;1.00;;;;;;;25.40;36.60;99985.78;5195678;28;20040;-85
2023/07/15 00:59:38;;;;;;;0.30;0.30;;;;;;;25.38;36.53;99993.13;5210209;28;20037;-84
2023/07/15 01:02:30;;;;;;;0.20;0.20;;;;;;;25.34;36.71;99983.66;5211991;28;20021;-84
2023/07/15 01:05:21;;;;;;;0.30;0.30;;;;;;;25.32;36.90;99984.81;5209349;28;20051;-84
2023/07/15 01:08:11;;;;;;;0.20;0.20;;;;;;;25.27;36.71;99979.94;5196265;28;20028;-85
2023/07/15 01:11:02;;;;;;;0.20;0.20;;;;;;;25.25;37.00;99984.59;5209771;28;20041;-84
2023/07/15 01:13:53;;;;;;;0.43;0.43;;;;;;;25.26;36.93;99979.09;5191648;28;20115;-85
2023/07/15 01:16:47;;;;;;;0.30;0.30;;;;;;;25.20;36.96;99978.88;5207430;28;20392;-85
2023/07/15 01:19:38;;;;;;;3.85;1.60;;;;;;;25.17;36.87;99979.16;5191016;28;20104;-86
2023/07/15 01:22:29;;;;;;;0.25;0.25;;;;;;;25.22;36.80;99972.34;5190235;28;20100;-84
2023/07/15 01:25:20;;;;;;;0.30;0.30;;;;;;;25.13;36.91;99978.63;5192964;28;20096;-83
2023/07/15 01:28:11;;;;;;;0.25;0.25;;;;;;;25.12;36.82;99972.44;5193890;28;20077;-84
2023/07/15 01:31:02;;;;;;;0.40;0.40;;;;;;;25.08;37.20;99965.66;5201762;28;20037;-86
2023/07/15 01:33:53;;;;;;;0.47;0.47;;;;;;;25.05;37.08;99971.38;5201341;28;20033;-85
2023/07/15 01:36:43;;;;;;;0.52;0.40;;;;;;;25.04;37.01;99969.69;5235076;28;20032;-85
2023/07/15 01:39:34;;;;;;;0.30;0.30;;;;;;;24.99;37.30;99974.69;5196854;28;20397;-85
2023/07/15 01:42:25;;;;;;;0.30;0.30;;;;;;;24.97;37.48;99973.97;5210508;28;20013;-85
2023/07/15 01:45:16;;;;;;;0.55;0.55;;;;;;;24.91;37.61;99969.22;5204960;28;20036;-84
2023/07/15 01:48:07;;;;;;;0.35;0.35;;;;;;;24.85;37.63;99972.50;5227248;28;20028;-85
2023/07/15 01:50:58;;;;;;;0.20;0.20;;;;;;;24.80;37.57;99971.13;5210898;28;20566;-84
2023/07/15 01:53:49;;;;;;;0.40;0.40;;;;;;;24.87;37.88;99967.84;5207742;28;20037;-85
2023/07/15 01:56:41;;;;;;;0.10;0.10;;;;;;;24.88;37.74;99966.84;5197811;28;20025;-84
2023/07/15 01:59:31;;;;;;;3.13;0.30;;;;;;;24.72;38.05;99965.69;5214590;28;20112;-84
2023/07/15 02:02:22;;;;;;;0.20;0.20;;;;;;;24.73;37.77;99956.66;5197779;28;20074;-84
2023/07/15 02:05:13;;;;;;;0.65;0.65;;;;;;;24.73;37.81;99956.66;5197474;28;20043;-84
2023/07/15 02:08:04;;;;;;;0.32;0.32;;;;;;;24.74;37.84;99957.47;5212234;28;20025;-84
2023/07/15 02:10:55;;;;;;;0.20;0.20;;;;;;;24.73;37.68;99961.16;5228111;28;20052;-85
2023/07/15 02:13:46;;;;;;;0.73;0.73;;;;;;;24.69;38.64;99962.47;5207642;28;20063;-84
2023/07/15 02:16:36;;;;;;;0.55;0.55;;;;;;;24.67;37.81;99954.56;5210383;28;20044;-85
2023/07/15 02:19:27;;;;;;;0.30;0.30;;;;;;;24.66;37.94;99958.22;5230087;28;20104;-84
2023/07/15 02:22:19;;;;;;;0.40;0.25;;;;;;;24.61;38.38;99952.47;5243121;28;20029;-83
2023/07/15 02:25:09;;;;;;;0.30;0.30;;;;;;;24.57;38.44;99953.78;5197775;28;20143;-84
2023/07/15 02:28:00;;;;;;;0.30;0.30;;;;;;;24.57;37.90;99951.91;5211525;28;20036;-85
2023/07/15 02:30:51;;;;;;;0.30;0.30;;;;;;;24.56;38.69;99954.75;5211825;28;20044;-84
2023/07/15 02:33:42;;;;;;;0.40;0.40;;;;;;;24.48;38.31;99953.69;5193900;28;20742;-85
2023/07/15 02:36:33;;;;;;;0.25;0.25;;;;;;;24.44;38.58;99952.28;5198808;28;20495;-85
2023/07/15 02:39:24;;;;;;;0.30;0.30;;;;;;;24.44;38.74;99949.59;5196169;28;20036;-84
2023/07/15 02:42:15;;;;;;;0.60;0.60;;;;;;;24.36;38.58;99960.22;5209894;28;20021;-84
2023/07/15 02:45:08;;;;;;;0.20;0.20;;;;;;;24.38;38.86;99955.56;5216938;28;20043;-84
2023/07/15 02:47:58;;;;;;;0.20;0.20;;;;;;;24.38;38.48;99952.06;5210686;28;20152;-85
2023/07/15 02:50:54;;;;;;;0.20;0.20;;;;;;;24.39;38.71;99957.25;5197897;28;20048;-85
2023/07/15 02:53:45;;;;;;;0.35;0.35;;;;;;;24.15;39.21;99957.81;5196168;28;20025;-85
2023/07/15 02:56:36;;;;;;;0.30;0.30;;;;;;;24.13;38.93;99954.44;5195754;28;20391;-83
2023/07/15 02:59:27;;;;;;;0.80;0.65;;;;;;;24.17;38.88;99955.81;5217100;28;20029;-86
2023/07/15 03:02:17;;;;;;;0.40;0.40;;;;;;;24.17;39.02;99950.47;5231966;28;20036;-84
2023/07/15 03:05:08;;;;;;;0.20;0.20;;;;;;;24.08;39.65;99949.53;5195688;28;20064;-84
2023/07/15 03:07:59;;;;;;;0.20;0.20;;;;;;;24.11;39.08;99949.22;5195014;28;20033;-84
2023/07/15 03:10:50;;;;;;;0.32;0.32;;;;;;;24.14;38.68;99946.25;5208804;28;20920;-84
2023/07/15 03:13:41;;;;;;;1.25;0.35;;;;;;;24.07;39.08;99953.22;5193821;28;20043;-85
2023/07/15 03:16:32;;;;;;;0.40;0.40;;;;;;;24.04;39.39;99950.81;5198990;28;20048;-84
2023/07/15 03:19:23;;;;;;;0.40;0.40;;;;;;;24.04;39.31;99950.81;5195431;28;20029;-84
2023/07/15 03:22:14;;;;;;;0.43;0.43;;;;;;;23.92;39.58;99952.81;5207605;28;20091;-85
2023/07/15 03:25:06;;;;;;;0.20;0.20;;;;;;;23.87;39.50;99955.09;5194194;28;20056;-84
2023/07/15 03:27:57;;;;;;;0.65;0.63;;;;;;;23.80;39.60;99949.47;5213030;28;20033;-84
2023/07/15 03:30:49;;;;;;;1.00;0.95;;;;;;;23.84;39.39;99964.25;5208229;28;20033;-84
2023/07/15 03:33:41;;;;;;;0.65;0.65;;;;;;;23.79;39.25;99963.00;5194856;28;20032;-84
2023/07/15 03:36:32;;;;;;;0.40;0.40;;;;;;;23.70;39.65;99964.72;5197473;28;20020;-83
2023/07/15 03:39:23;;;;;;;0.32;0.32;;;;;;;23.81;39.25;99958.31;5211438;28;20607;-85
2023/07/15 03:42:13;;;;;;;0.30;0.30;;;;;;;23.77;39.25;99963.13;5193304;28;20139;-83
2023/07/15 03:45:05;;;;;;;0.68;0.68;;;;;;;23.72;39.62;99958.22;5209311;28;20033;-84
2023/07/15 03:47:56;;;;;;;0.75;0.50;;;;;;;23.80;39.35;99957.50;5194322;28;20064;-84
2023/07/15 03:50:46;;;;;;;0.22;0.22;;;;;;;23.73;39.33;99962.59;5219699;28;20044;-84
2023/07/15 03:53:37;;;;;;;0.60;0.60;;;;;;;23.72;39.25;99958.22;5196615;28;20035;-85
2023/07/15 03:56:28;;;;;;;1.83;0.90;;;;;;;23.76;39.56;99957.94;5219610;28;20017;-83
2023/07/15 03:59:19;;;;;;;0.20;0.20;;;;;;;23.76;39.73;99953.41;5210336;28;20040;-84
2023/07/15 04:02:10;;;;;;;0.60;0.60;;;;;;;23.80;39.66;99956.66;5210326;28;20036;-84
2023/07/15 04:05:01;;;;;;;0.40;0.40;;;;;;;23.68;39.36;99950.63;5211130;28;20033;-85
2023/07/15 04:07:53;;;;;;;0.30;0.30;;;;;;;23.59;39.94;99952.34;5190098;28;20059;-84
2023/07/15 04:10:47;;;;;;;0.60;0.45;;;;;;;23.60;39.93;99954.03;5193478;28;20027;-84
2023/07/15 04:13:38;;;;;;;0.22;0.22;;;;;;;23.63;40.00;99951.09;5224774;28;20060;-82
2023/07/15 04:16:29;;;;;;;0.20;0.20;;;;;;;23.70;40.03;99948.66;5215947;28;20104;-83
2023/07/15 04:19:20;;;;;;;0.20;0.20;;;;;;;23.68;39.70;99950.63;5206899;28;20037;-84
2023/07/15 04:22:11;;;;;;;0.20;0.20;;;;;;;23.63;40.12;99948.41;5211017;28;20037;-84
2023/07/15 04:25:01;;;;;;;0.20;0.20;;;;;;;23.64;40.14;99947.38;5204263;28;20747;-84
2023/07/15 04:27:52;;;;;;;1.50;0.40;;;;;;;23.68;40.02;99947.94;5209686;28;20025;-84
2023/07/15 04:30:43;;;;;;;0.30;0.30;;;;;;;23.69;39.95;99946.94;5209586;28;20032;-84
2023/07/15 04:33:34;;;;;;;1.00;0.70;;;;;;;23.67;40.42;99951.63;5193291;28;20034;-84
2023/07/15 04:36:25;;;;;;;0.20;0.20;;;;;;;23.67;39.95;99954.31;5200380;28;20037;-83
2023/07/15 04:39:16;;;;;;;0.20;0.20;;;;;;;23.70;40.25;99960.22;5221251;28;20032;-83
2023/07/15 04:42:07;;;;;;;1.20;0.93;;;;;;;23.59;41.34;99965.72;5206096;28;20088;-83
2023/07/15 04:44:57;;;;;;;0.40;0.40;;;;;;;23.61;40.88;99968.25;5194084;28;20619;-83
2023/07/15 04:47:48;;;;;;;0.28;0.28;;;;;;;23.66;41.14;99957.97;5208603;28;20032;-83
2023/07/15 04:50:40;;;;;;;0.30;0.30;;;;;;;23.54;41.42;99974.19;5217965;28;20044;-83
2023/07/15 04:53:30;;;;;;;1.75;0.43;;;;;;;23.66;40.85;99964.16;5204939;28;20048;-83
2023/07/15 04:56:21;;;;;;;0.30;0.30;;;;;;;23.53;41.19;99974.34;5216445;28;20048;-83
2023/07/15 04:59:12;;;;;;;0.47;0.47;;;;;;;23.62;41.41;99961.91;5231016;28;20091;-85
2023/07/15 05:02:03;;;;;;;0.20;0.20;;;;;;;23.62;41.57;99967.28;5204952;28;20032;-84
2023/07/15 05:04:54;;;;;;;2.40;1.27;;;;;;;23.65;40.86;99967.81;5190771;28;20033;-84
2023/07/15 05:07:45;;;;;;;0.20;0.20;;;;;;;23.58;41.00;99962.22;5207621;28;20051;-84
2023/07/15 05:10:36;;;;;;;0.50;0.50;;;;;;;23.65;41.43;99962.47;5217142;28;20035;-84
2023/07/15 05:13:27;;;;;;;0.68;0.68;;;;;;;23.53;42.37;99983.22;5190735;28;20052;-84
2023/07/15 05:16:18;;;;;;;0.20;0.20;;;;;;;23.54;41.71;99982.22;5190525;28;20103;-84
2023/07/15 05:19:08;;;;;;;0.20;0.20;;;;;;;23.53;42.83;99977.84;5203874;28;20514;-84
2023/07/15 05:21:59;;;;;;;0.75;0.45;;;;;;;23.59;42.02;99976.44;5221947;28;20033;-84
2023/07/15 05:24:50;;;;;;;0.32;0.32;;;;;;;23.53;41.77;99980.53;5205319;28;20455;-84
2023/07/15 05:27:41;;;;;;;0.65;0.65;;;;;;;23.54;42.06;99987.59;5207844;28;20025;-84
2023/07/15 05:30:34;;;;;;;0.40;0.40;;;;;;;23.51;42.15;99982.50;5189498;28;20124;-84
2023/07/15 05:33:25;;;;;;;;;;;;;;;23.63;42.36;99967.16;5207913;28;20119;-84
2023/07/15 05:36:16;;;;;;;0.20;0.20;;;;;;;23.60;42.06;99969.25;5202284;28;19964;-84
2023/07/15 05:39:07;;;;;;;0.50;0.50;;;;;;;23.60;42.49;99969.25;5218599;28;20024;-85
2023/07/15 05:41:58;;;;;;;0.30;0.30;;;;;;;23.67;42.58;99970.38;5209039;28;20064;-83
2023/07/15 05:44:48;;;;;;;0.20;0.20;;;;;;;23.58;42.35;99967.59;5229509;28;20416;-83
2023/07/15 05:47:39;;;;;;;0.30;0.30;;;;;;;23.63;42.83;99959.13;5212099;28;20028;-84
2023/07/15 05:50:34;;;;;;;0.20;0.20;;;;;;;23.56;43.19;99963.34;5211897;28;20029;-84
2023/07/15 05:53:25;;;;;;;0.30;0.30;;;;;;;23.67;42.73;99968.53;5196001;28;20032;-84
2023/07/15 05:56:16;;;;;;;0.20;0.20;;;;;;;23.63;42.86;99963.59;5196020;28;20041;-84
2023/07/15 05:59:07;;;;;;;0.90;0.73;;;;;;;23.69;42.65;99971.06;5210813;28;20045;-83
2023/07/15 06:01:58;;;;;;;0.43;0.43;;;;;;;23.62;43.06;99975.31;5195455;28;21526;-85
2023/07/15 06:04:48;;;;;;;0.38;0.38;;;;;;;23.61;43.88;99987.00;5223601;28;20033;-83
2023/07/15 06:07:39;;;;;;;0.43;0.43;;;;;;;23.72;43.85;99981.50;5225939;28;20036;-83
2023/07/15 06:10:30;;;;;;;0.30;0.30;;;;;;;23.73;43.47;99978.66;5215743;28;20033;-83
2023/07/15 06:13:21;;;;;;;0.35;0.35;;;;;;;23.69;44.20;99995.16;5205428;28;20021;-83
2023/07/15 06:16:11;;;;;;;0.40;0.40;;;;;;;23.74;44.62;100003.63;5210893;28;20091;-84
2023/07/15 06:19:02;;;;;;;0.22;0.22;;;;;;;23.82;43.58;100001.06;5241572;28;20036;-83
2023/07/15 06:21:53;;;;;;;0.40;0.40;;;;;;;23.82;44.77;99978.78;5212539;28;20849;-84
2023/07/15 06:24:46;;;;;;;0.43;0.43;;;;;;;23.89;43.95;99994.13;5205855;28;20037;-84
2023/07/15 06:27:36;;;;;;;0.20;0.20;;;;;;;23.85;45.04;100000.75;5207975;28;20538;-83
2023/07/15 06:30:27;;;;;;;0.20;0.20;;;;;;;23.92;45.10;99989.47;5212508;28;20036;-83
2023/07/15 06:33:18;;;;;;;0.45;0.45;;;;;;;23.85;45.50;99987.34;5194039;28;20063;-84
2023/07/15 06:36:10;;;;;;;0.22;0.22;;;;;;;23.90;45.17;99986.91;5202825;28;20036;-83
2023/07/15 06:39:01;;;;;;;0.55;0.55;;;;;;;24.03;44.18;99992.84;5190529;28;20140;-84
2023/07/15 06:41:52;;;;;;;6.22;1.35;;;;;;;24.01;45.85;100018.06;5192049;28;20029;-84
2023/07/15 06:44:43;;;;;;;0.28;0.28;;;;;;;23.96;45.56;100007.81;5189635;28;20064;-84
2023/07/15 06:47:34;;;;;;;0.30;0.30;;;;;;;23.95;45.71;99999.91;5211767;28;20021;-83
2023/07/15 06:50:25;;;;;;;0.77;0.47;;;;;;;24.00;45.21;99992.31;5190530;28;20033;-83
2023/07/15 06:53:15;;;;;;;0.47;0.47;;;;;;;24.02;44.72;99988.47;5224729;28;20059;-85
2023/07/15 06:56:06;;;;;;;0.20;0.20;;;;;;;24.10;45.15;99982.38;5202525;28;20036;-84
2023/07/15 06:58:57;;;;;;;0.85;0.85;;;;;;;24.14;44.53;99978.41;5195614;28;20052;-84
2023/07/15 07:01:48;;;;;;;0.20;0.20;;;;;;;24.14;45.48;99977.56;5196547;28;20556;-84
2023/07/15 07:04:39;;;;;;;0.30;0.30;;;;;;;24.17;44.54;99986.13;5196675;28;20393;-83
2023/07/15 07:07:30;;;;;;;0.38;0.38;;;;;;;24.20;44.86;99988.53;5195209;28;20111;-85
2023/07/15 07:10:21;;;;;;;0.55;0.40;;;;;;;24.16;44.89;100003.25;5195638;28;20044;-84
2023/07/15 07:13:12;;;;;;;0.50;0.50;;;;;;;24.24;44.85;99999.78;5225329;28;20033;-84
2023/07/15 07:16:02;;;;;;;0.30;0.30;;;;;;;24.26;44.64;99980.88;5209734;28;20037;-84
2023/07/15 07:18:53;;;;;;;0.30;0.30;;;;;;;24.28;45.10;99995.84;5193450;28;20048;-84
2023/07/15 07:21:44;;;;;;;0.90;0.90;;;;;;;24.26;44.95;99988.91;5225644;28;20057;-84
2023/07/15 07:24:35;;;;;;;0.32;0.32;;;;;;;24.37;44.64;99972.66;5206477;28;20037;-84
2023/07/15 07:27:26;;;;;;;0.50;0.50;;;;;;;24.36;44.96;99982.53;5204837;28;20045;-84
2023/07/15 07:30:16;;;;;;;0.30;0.30;;;;;;;24.44;44.94;99983.63;5192686;28;20056;-85
2023/07/15 07:33:07;;;;;;;0.47;0.47;;;;;;;24.44;45.69;99989.81;5204297;28;20033;-83
2023/07/15 07:35:58;;;;;;;0.20;0.20;;;;;;;24.44;45.76;99991.66;5210041;28;20103;-85
2023/07/15 07:38:49;;;;;;;0.28;0.28;;;;;;;24.50;45.68;100010.66;5205695;28;20029;-82
2023/07/15 07:41:43;;;;;;;0.70;0.70;;;;;;;24.54;45.38;99999.66;5198484;28;20082;-83
2023/07/15 07:44:33;;;;;;;0.10;0.10;;;;;;;24.57;45.16;100000.19;5209486;28;20044;-83
2023/07/15 07:47:24;;;;;;;0.20;0.20;;;;;;;24.61;45.63;100008.78;5207876;28;20028;-84
2023/07/15 07:50:15;;;;;;;0.30;0.22;;;;;;;24.69;46.47;100024.16;5201886;28;20040;-84
2023/07/15 07:53:06;;;;;;;3.40;1.20;;;;;;;24.73;45.37;100026.41;5213456;28;20033;-83
2023/07/15 07:55:56;;;;;;;0.95;0.50;;;;;;;24.75;46.52;100037.78;5196371;28;20056;-84
2023/07/15 07:58:48;;;;;;;0.20;0.20;;;;;;;24.78;45.84;100029.44;5189992;28;20098;-83
2023/07/15 08:01:39;;;;;;;0.20;0.20;;;;;;;24.81;46.45;100034.53;5202647;28;20033;-85
2023/07/15 08:04:30;;;;;;;0.40;0.40;;;;;;;24.85;46.65;100026.16;5212045;28;20098;-83
2023/07/15 08:07:21;;;;;;;0.30;0.30;;;;;;;24.91;46.36;100031.78;5203333;28;20041;-84
2023/07/15 08:10:12;;;;;;;0.40;0.40;;;;;;;24.96;46.17;100016.06;5202155;28;20043;-83
2023/07/15 08:13:03;;;;;;;2.95;0.35;;;;;;;25.00;45.82;100008.53;5189109;28;20028;-84
2023/07/15 08:15:54;;;;;;;0.20;0.20;;;;;;;25.05;46.68;100018.81;5201296;28;20040;-84
2023/07/15 08:18:45;;;;;;;0.20;0.20;;;;;;;25.04;46.82;100023.34;5187148;28;20147;-84
2023/07/15 08:21:36;;;;;;;0.20;0.20;;;;;;;25.10;47.19;100038.84;5204582;28;20020;-83
2023/07/15 08:24:27;;;;;;;0.13;0.13;;;;;;;25.07;48.26;100060.63;5188852;28;20115;-83
2023/07/15 08:27:19;;;;;;;0.30;0.30;;;;;;;25.14;48.63;100066.22;5204672;28;20036;-83
2023/07/15 08:30:10;;;;;;;0.10;0.10;;;;;;;25.04;49.69;100077.03;5207553;28;20037;-84
2023/07/15 08:33:06;;;;;;;0.10;0.10;;;;;;;25.07;49.44;100082.09;5190575;28;20037;-84
2023/07/15 08:35:57;;;;;;;0.17;0.17;;;;;;;24.98;49.96;100107.16;5201484;28;20041;-84
2023/07/15 08:38:47;;;;;;;0.13;0.13;;;;;;;25.07;49.57;100097.34;5205556;28;20038;-84
2023/07/15 08:41:39;;;;;;;0.20;0.20;;;;;;;24.98;50.16;100104.47;5204607;28;20020;-84
2023/07/15 08:44:30;;;;;;;1.15;0.63;;;;;;;24.85;50.44;100101.28;5205435;28;20152;-84
2023/07/15 08:47:22;;;;;;;0.20;0.20;;;;;;;24.97;49.84;100102.78;5190896;28;20601;-84
2023/07/15 08:50:17;;;;;;;0.10;0.10;;;;;;;24.74;51.82;100124.66;5193235;28;20092;-84
2023/07/15 08:53:08;;;;;;;0.10;0.10;;;;;;;24.74;53.61;100139.88;5203743;28;20033;-84
2023/07/15 08:56:00;;;;;;;0.35;0.35;;;;;;;24.81;54.90;100138.28;5217967;28;20064;-84
2023/07/15 08:58:52;;;;;;;0.20;0.20;;;;;;;24.51;58.10;100145.59;5229182;28;20056;-83
2023/07/15 09:01:43;;;;;;;0.30;0.30;;;;;;;24.44;59.39;100145.31;5221995;28;20280;-84
2023/07/15 09:04:33;;;;;;;0.20;0.20;;;;;;;24.80;55.03;100137.47;5220244;28;20029;-84
2023/07/15 09:07:26;;;;;;;0.30;0.30;;;;;;;24.71;59.66;100151.75;5206771;28;20292;-85
2023/07/15 09:10:17;;;;;;;0.10;0.10;;;;;;;24.63;59.33;100148.94;5214144;28;20068;-83
2023/07/15 09:13:08;;;;;;;0.30;0.30;;;;;;;24.86;56.97;100138.72;5214424;28;20169;-84
2023/07/15 09:15:59;;;;;;;0.20;0.20;;;;;;;24.27;62.74;100138.03;5232888;28;20033;-84
2023/07/15 09:18:50;;;;;;;0.50;0.50;;;;;;;24.47;61.09;100154.91;5224678;28;20040;-84
2023/07/15 09:21:52;;;;;;;0.28;0.28;;;;;;;24.56;59.92;100169.28;5223070;28;20420;-84
2023/07/15 09:24:44;;;;;;;0.47;0.47;;;;;;;24.19;62.52;100163.72;5208395;28;20100;-84
2023/07/15 09:27:35;;;;;;;0.30;0.30;;;;;;;24.34;61.38;100156.09;5186275;28;20025;-84
2023/07/15 09:30:26;;;;;;;0.30;0.30;;;;;;;24.42;62.03;100165.22;5189336;28;20029;-84
2023/07/15 09:33:33;;;;;;;0.20;0.20;;;;;;;24.56;59.85;100139.78;5190935;28;20079;-85
2023/07/15 09:36:30;;;;;;;7.40;1.23;;;;;;;24.62;58.98;100144.56;5192555;28;20035;-84
2023/07/15 09:39:22;;;;;;;0.30;0.30;;;;;;;24.69;57.90;100143.00;5221979;28;20044;-84
2023/07/15 09:42:13;;;;;;;0.20;0.20;;;;;;;24.68;58.22;100133.25;5206617;28;20036;-84
2023/07/15 09:45:05;;;;;;;0.20;0.20;;;;;;;24.42;62.68;100143.78;5188522;28;20574;-85
2023/07/15 09:47:55;;;;;;;0.30;0.30;;;;;;;24.62;58.82;100128.47;5192168;28;20480;-84
2023/07/15 09:50:47;;;;;;;0.20;0.20;;;;;;;24.65;57.83;100120.97;5207023;28;20052;-85
2023/07/15 09:53:42;;;;;;;0.28;0.28;;;;;;;24.70;58.12;100117.88;5219279;28;20102;-84
2023/07/15 09:56:43;;;;;;;0.52;0.52;;;;;;;24.58;60.76;100109.16;5206473;28;20056;-84
2023/07/15 09:59:47;;;;;;;0.55;0.43;;;;;;;24.58;59.32;100097.59;5184309;28;20044;-84
2023/07/15 10:02:43;;;;;;;5.25;0.90;;;;;;;24.62;59.60;100088.25;5204497;28;20033;-84
2023/07/15 10:05:35;;;;;;;0.40;0.40;;;;;;;24.66;57.91;100090.47;5216775;28;20033;-84
2023/07/15 10:08:28;;;;;;;0.47;0.30;;;;;;;24.65;58.38;100104.06;5201956;28;20024;-84
2023/07/15 10:11:19;;;;;;;2.63;1.50;;;;;;;24.68;57.58;100098.41;5202129;28;20052;-83
2023/07/15 10:14:10;;;;;;;0.85;0.30;;;;;;;24.66;57.89;100103.06;5186936;28;20037;-84
2023/07/15 10:17:15;;;;;;;0.20;0.20;;;;;;;24.61;58.71;100099.97;5189378;28;20025;-84
2023/07/15 10:20:10;;;;;;;0.40;0.40;;;;;;;24.68;58.26;100111.81;5203829;28;20116;-84
2023/07/15 10:23:01;;;;;;;0.22;0.22;;;;;;;24.49;64.53;100126.97;5194114;28;20025;-84
2023/07/15 10:26:06;;;;;;;3.75;1.08;;;;;;;24.58;65.25;100109.16;5208536;28;20254;-84
2023/07/15 10:28:58;;;;;;;0.47;0.47;;;;;;;24.42;66.89;100104.41;5192898;28;20075;-84
2023/07/15 10:32:08;;;;;;;2.35;1.23;;;;;;;24.47;65.44;100120.91;5211067;28;20039;-84
2023/07/15 10:35:04;;;;;;;0.55;0.55;;;;;;;24.56;63.09;100121.03;5234099;28;20089;-84
2023/07/15 10:37:56;;;;;;;0.20;0.20;;;;;;;24.39;66.83;100114.56;5223968;28;20053;-83
2023/07/15 10:40:47;;;;;;;0.20;0.20;;;;;;;24.45;67.22;100124.75;5212189;28;20028;-84
2023/07/15 10:43:39;;;;;;;0.30;0.30;;;;;;;24.47;67.30;100115.56;5213920;28;20083;-84
2023/07/15 10:46:31;;;;;;;0.10;0.10;;;;;;;24.51;65.79;100119.63;5208976;28;20025;-83
2023/07/15 10:49:22;;;;;;;0.40;0.40;;;;;;;24.64;64.13;100127.31;5203125;28;20104;-84
2023/07/15 10:52:23;;;;;;;0.20;0.20;;;;;;;24.76;64.99;100140.59;5193748;28;20108;-87
2023/07/15 10:55:14;;;;;;;8.40;1.80;;;;;;;24.77;65.10;100139.59;5189131;28;20033;-84
2023/07/15 10:58:08;;;;;;;0.57;0.57;;;;;;;24.79;64.35;100138.44;5190639;28;20091;-84
2023/07/15 11:01:01;;;;;;;0.43;0.30;;;;;;;24.89;63.79;100130.34;5192592;28;20055;-84
2023/07/15 11:03:51;;;;;;;0.50;0.50;;;;;;;25.03;63.95;100128.16;5227478;28;20025;-84
2023/07/15 11:06:42;;;;;;;1.52;0.77;;;;;;;25.17;62.91;100145.56;5222341;28;20025;-85
2023/07/15 11:09:39;;;;;;;0.32;0.32;;;;;;;25.15;67.99;100153.78;5207583;28;20037;-84
2023/07/15 11:12:31;;;;;;;0.30;0.30;;;;;;;25.28;64.56;100153.44;5238982;28;20021;-84
2023/07/15 11:15:28;;;;;;;0.20;0.20;;;;;;;25.36;63.73;100150.00;5225883;28;20423;-84
2023/07/15 11:18:21;;;;;;;0.20;0.20;;;;;;;25.34;65.95;100163.56;5210982;28;20107;-84
2023/07/15 11:21:12;;;;;;;;;;;;;;;25.51;66.64;100153.00;5205275;28;20083;-84
2023/07/15 11:24:03;;;;;;;0.28;0.28;;;;;;;25.62;67.24;100147.44;5206010;28;19920;-85
2023/07/15 11:26:55;;;;;;;0.47;0.47;;;;;;;25.66;65.61;100156.84;5208757;28;20013;-85
2023/07/15 11:29:45;;;;;;;0.20;0.20;;;;;;;25.76;64.68;100144.19;5190466;28;20028;-85
2023/07/15 11:32:36;;;;;;;0.22;0.22;;;;;;;25.93;62.76;100141.63;5225196;28;20044;-85
2023/07/15 11:35:30;;;;;;;0.43;0.43;;;;;;;25.97;62.59;100132.28;5191277;28;20100;-84
2023/07/15 11:38:33;;;;;;;0.17;0.17;;;;;;;26.03;63.62;100118.19;5206765;28;20104;-85
2023/07/15 11:41:26;;;;;;;0.40;0.30;;;;;;;26.12;62.28;100113.75;5194497;28;20035;-85
2023/07/15 11:44:20;;;;;;;0.20;0.20;;;;;;;26.18;62.50;100114.97;5222945;28;20625;-84
2023/07/15 11:47:11;;;;;;;0.73;0.73;;;;;;;26.25;61.12;100124.06;5192843;28;20115;-85
2023/07/15 11:50:03;;;;;;;0.30;0.30;;;;;;;26.34;61.79;100120.44;5223587;28;20036;-84
2023/07/15 11:52:58;;;;;;;0.30;0.30;;;;;;;26.21;62.36;100118.19;5206130;28;20084;-85
2023/07/15 11:55:49;;;;;;;0.25;0.25;;;;;;;26.25;62.16;100129.47;5207302;28;20029;-84
2023/07/15 11:58:53;;;;;;;0.20;0.20;;;;;;;26.24;61.45;100119.69;5192614;28;20040;-85
2023/07/15 12:01:43;;;;;;;0.32;0.32;;;;;;;26.38;60.46;100116.44;5198160;28;20013;-85
2023/07/15 12:04:34;;;;;;;0.63;0.63;;;;;;;26.42;59.75;100108.91;5192760;28;20066;-85
2023/07/15 12:07:25;;;;;;;0.30;0.30;;;;;;;26.24;61.36;100112.50;5195568;28;20031;-84
2023/07/15 12:10:18;;;;;;;0.30;0.30;;;;;;;26.30;60.61;100105.63;5207850;28;20053;-83
2023/07/15 12:13:09;;;;;;;0.35;0.35;;;;;;;26.30;59.79;100111.03;5207477;28;20025;-85
2023/07/15 12:16:01;;;;;;;0.30;0.30;;;;;;;26.31;59.66;100099.25;5193019;28;20038;-84
2023/07/15 12:18:55;;;;;;;0.43;0.40;;;;;;;26.30;59.72;100100.25;5212011;28;20041;-85
2023/07/15 12:21:46;;;;;;;0.40;0.40;;;;;;;26.27;60.31;100110.50;5196235;28;20025;-85
2023/07/15 12:24:36;;;;;;;0.20;0.20;;;;;;;26.26;61.08;100114.19;5207428;28;20033;-85
2023/07/15 12:27:27;;;;;;;0.20;0.20;;;;;;;26.19;61.58;100097.84;5193413;28;20040;-85
2023/07/15 12:30:18;;;;;;;0.22;0.22;;;;;;;26.35;59.83;100106.00;5195881;28;20958;-85
2023/07/15 12:33:09;;;;;;;0.20;0.20;;;;;;;26.34;61.03;100098.09;5191237;28;20028;-84
2023/07/15 12:36:00;;;;;;;0.95;0.73;;;;;;;26.30;62.64;100097.56;5190245;28;20057;-84
2023/07/15 12:38:53;;;;;;;0.30;0.30;;;;;;;26.26;62.92;100103.44;5223323;28;20339;-83
2023/07/15 12:41:45;;;;;;;0.20;0.20;;;;;;;26.27;63.12;100100.56;5195931;28;20107;-84
2023/07/15 12:44:35;;;;;;;0.30;0.30;;;;;;;26.43;62.14;100086.38;5198493;28;20056;-83
2023/07/15 12:47:26;;;;;;;0.20;0.20;;;;;;;26.47;61.63;100081.53;5207617;28;20029;-84
2023/07/15 12:50:17;;;;;;;0.30;0.30;;;;;;;26.51;62.76;100072.13;5202032;28;20051;-84
2023/07/15 12:53:08;;;;;;;0.65;0.63;;;;;;;26.46;64.12;100059.16;5226701;28;20044;-84
2023/07/15 12:55:59;;;;;;;0.20;0.20;;;;;;;26.54;62.41;100047.59;5209403;28;20067;-85
2023/07/15 12:58:50;;;;;;;0.20;0.20;;;;;;;26.51;63.24;100046.06;5195879;28;20028;-85
2023/07/15 13:01:40;;;;;;;0.32;0.32;;;;;;;26.51;64.32;100032.63;5195540;28;20025;-84
2023/07/15 13:04:31;;;;;;;0.10;0.10;;;;;;;26.74;63.34;100029.31;5208017;28;20085;-85
2023/07/15 13:07:22;;;;;;;0.20;0.20;;;;;;;26.93;63.86;100019.31;5191381;28;20025;-84
2023/07/15 13:10:13;;;;;;;0.70;0.63;;;;;;;26.96;63.25;100019.81;5193058;28;20028;-84
2023/07/15 13:13:03;;;;;;;0.75;0.75;;;;;;;27.13;62.67;100025.22;5194466;28;20443;-85
2023/07/15 13:15:54;;;;;;;0.30;0.30;;;;;;;27.18;60.77;100012.09;5189843;28;20101;-85
2023/07/15 13:18:45;;;;;;;0.38;0.38;;;;;;;27.31;61.07;100007.03;5207836;28;20049;-85
2023/07/15 13:21:36;;;;;;;1.17;1.05;;;;;;;27.37;59.50;100010.09;5195560;28;20021;-85
2023/07/15 13:24:28;;;;;;;0.35;0.35;;;;;;;27.44;60.21;100032.66;5218928;28;20040;-85